Back to Top

Language: 

My Weather Underground Personal Weather Station Historical Data with Graphs...

Delerius Weather Station Historical Data
Daily Summary for October 13, 2017 Units:  Metric    English   Both
« Previous Day
Next Day »
Daily Weekly Monthly Yearly Custom
  High: Low: Average:
Temperature: 21 °C 13.9 °C 17.6 °C
Dew Point: 16.9 °C 11.1 °C 14.8 °C
Humidity: 88 % 75 % 84 %
Wind Speed: 30.6 km/h 3.2 km/h 17.7 km/h
Wind Gust: 56.3 km/h - -
Wind:- - SW
Pressure: 1016.5 hPa 1012.8 hPa -
Precipitation: 0 mm    
Historical Graphs
 
 
Tabular Data for October 13, 2017
Time Temperature Dew Point Pressure Wind Wind Speed Wind Gust Humidity Rainfall Rate (Hourly) solar Conditions
00:04 13.9 °C 11.1 °C 1015.5 hPa SW 8 km/h 12.9 km/h 83 % 0 mm 0 W/m2
00:09 13.9 °C 11.2 °C 1015.5 hPa SW 9.7 km/h 19.3 km/h 84 % 0 mm 0 W/m2
00:14 14.1 °C 11.4 °C 1015.5 hPa SW 11.3 km/h 19.3 km/h 84 % 0 mm 0 W/m2
00:19 14.1 °C 11.4 °C 1015.5 hPa SW 9.7 km/h 17.7 km/h 84 % 0 mm 0 W/m2
00:24 14.2 °C 11.7 °C 1015.5 hPa SSW 9.7 km/h 19.3 km/h 85 % 0 mm 0 W/m2
00:29 14.3 °C 11.8 °C 1015.5 hPa SSW 9.7 km/h 19.3 km/h 85 % 0 mm 0 W/m2
00:34 14.3 °C 11.8 °C 1015.5 hPa SSW 9.7 km/h 16.1 km/h 85 % 0 mm 0 W/m2
00:39 14.3 °C 11.6 °C 1015.5 hPa SSW 9.7 km/h 16.1 km/h 84 % 0 mm 0 W/m2
00:44 14.3 °C 11.6 °C 1015.1 hPa SSW 11.3 km/h 17.7 km/h 84 % 0 mm 0 W/m2
00:45 14.3 °C 11.6 °C 1015.1 hPa SSW 9.7 km/h 17.7 km/h 84 % 0 mm 0 W/m2
00:50 14.4 °C 11.9 °C 1015.1 hPa SSW 9.7 km/h 24.1 km/h 85 % 0 mm 0 W/m2
00:55 14.5 °C 12 °C 1015.5 hPa SSW 11.3 km/h 24.1 km/h 85 % 0 mm 0 W/m2
01:00 14.6 °C 12.1 °C 1015.5 hPa SSW 9.7 km/h 20.9 km/h 85 % 0 mm 0 W/m2
01:05 14.7 °C 12.4 °C 1015.5 hPa SSW 9.7 km/h 20.9 km/h 86 % 0 mm 0 W/m2
01:10 14.7 °C 12.2 °C 1015.5 hPa South 9.7 km/h 19.3 km/h 85 % 0 mm 0 W/m2
01:15 14.8 °C 12.5 °C 1015.5 hPa South 8 km/h 16.1 km/h 86 % 0 mm 0 W/m2
01:20 14.8 °C 12.5 °C 1015.5 hPa SSW 9.7 km/h 17.7 km/h 86 % 0 mm 0 W/m2
01:25 14.8 °C 12.5 °C 1015.5 hPa South 11.3 km/h 22.5 km/h 86 % 0 mm 0 W/m2
01:30 14.9 °C 12.6 °C 1015.5 hPa South 9.7 km/h 22.5 km/h 86 % 0 mm 0 W/m2
01:35 14.9 °C 12.6 °C 1015.5 hPa SSW 9.7 km/h 17.7 km/h 86 % 0 mm 0 W/m2
01:40 14.9 °C 12.6 °C 1015.5 hPa South 8 km/h 17.7 km/h 86 % 0 mm 0 W/m2
01:45 14.8 °C 12.5 °C 1015.5 hPa SSE 6.4 km/h 12.9 km/h 86 % 0 mm 0 W/m2
01:50 14.8 °C 12.5 °C 1015.5 hPa SSE 6.4 km/h 19.3 km/h 86 % 0 mm 0 W/m2
01:55 14.8 °C 12.5 °C 1015.1 hPa South 9.7 km/h 20.9 km/h 86 % 0 mm 0 W/m2
02:00 14.8 °C 12.5 °C 1015.5 hPa South 6.4 km/h 20.9 km/h 86 % 0 mm 0 W/m2
02:05 14.9 °C 12.6 °C 1015.1 hPa SSW 8 km/h 16.1 km/h 86 % 0 mm 0 W/m2
02:10 14.9 °C 12.6 °C 1015.5 hPa SSW 9.7 km/h 22.5 km/h 86 % 0 mm 0 W/m2
02:15 14.9 °C 12.6 °C 1015.5 hPa SSW 9.7 km/h 22.5 km/h 86 % 0 mm 0 W/m2
02:20 14.9 °C 12.6 °C 1015.5 hPa SSW 9.7 km/h 19.3 km/h 86 % 0 mm 0 W/m2
02:25 14.9 °C 12.6 °C 1015.1 hPa SSW 9.7 km/h 19.3 km/h 86 % 0 mm 0 W/m2
02:30 14.9 °C 12.6 °C 1015.1 hPa SSW 9.7 km/h 20.9 km/h 86 % 0 mm 0 W/m2
02:35 14.9 °C 12.6 °C 1015.1 hPa SSW 11.3 km/h 20.9 km/h 86 % 0 mm 0 W/m2
02:40 14.9 °C 12.6 °C 1015.1 hPa SSW 11.3 km/h 20.9 km/h 86 % 0 mm 0 W/m2
02:45 14.9 °C 12.6 °C 1015.1 hPa South 11.3 km/h 20.9 km/h 86 % 0 mm 0 W/m2
02:50 14.9 °C 12.6 °C 1015.1 hPa South 9.7 km/h 17.7 km/h 86 % 0 mm 0 W/m2
02:55 14.9 °C 12.6 °C 1015.1 hPa South 9.7 km/h 20.9 km/h 86 % 0 mm 0 W/m2
03:00 14.9 °C 12.4 °C 1015.1 hPa South 9.7 km/h 22.5 km/h 85 % 0 mm 0 W/m2
03:05 14.9 °C 12.4 °C 1015.1 hPa South 9.7 km/h 22.5 km/h 85 % 0 mm 0 W/m2
03:10 14.8 °C 12.3 °C 1014.8 hPa SSE 11.3 km/h 19.3 km/h 85 % 0 mm 0 W/m2
03:15 14.7 °C 12.2 °C 1014.8 hPa SSE 12.9 km/h 20.9 km/h 85 % 0 mm 0 W/m2
03:20 14.7 °C 12.4 °C 1015.1 hPa SSE 12.9 km/h 20.9 km/h 86 % 0 mm 0 W/m2
03:25 14.7 °C 12.4 °C 1015.1 hPa SSW 14.5 km/h 24.1 km/h 86 % 0 mm 0 W/m2
03:30 14.7 °C 12.4 °C 1014.8 hPa SSW 14.5 km/h 24.1 km/h 86 % 0 mm 0 W/m2
03:35 14.7 °C 12.4 °C 1014.8 hPa SSW 9.7 km/h 20.9 km/h 86 % 0 mm 0 W/m2
03:40 14.7 °C 12.4 °C 1014.8 hPa SSW 11.3 km/h 25.7 km/h 86 % 0 mm 0 W/m2
03:45 14.7 °C 12.4 °C 1014.8 hPa SSW 12.9 km/h 25.7 km/h 86 % 0 mm 0 W/m2
03:50 14.6 °C 12.4 °C 1014.4 hPa SW 11.3 km/h 24.1 km/h 87 % 0 mm 0 W/m2
03:55 14.7 °C 12.6 °C 1014.4 hPa SSW 11.3 km/h 24.1 km/h 87 % 0 mm 0 W/m2
04:01 14.7 °C 12.6 °C 1014.4 hPa SSW 11.3 km/h 22.5 km/h 87 % 0 mm 0 W/m2
04:06 14.8 °C 12.7 °C 1014.4 hPa SW 12.9 km/h 25.7 km/h 87 % 0 mm 0 W/m2
04:11 14.9 °C 12.8 °C 1014.4 hPa SW 11.3 km/h 25.7 km/h 87 % 0 mm 0 W/m2
04:16 14.9 °C 12.8 °C 1014.4 hPa SW 9.7 km/h 19.3 km/h 87 % 0 mm 0 W/m2
04:21 14.9 °C 12.8 °C 1014.4 hPa SSW 6.4 km/h 19.3 km/h 87 % 0 mm 0 W/m2
04:26 14.9 °C 12.8 °C 1014.1 hPa SSE 3.2 km/h 17.7 km/h 87 % 0 mm 0 W/m2
04:31 14.9 °C 12.8 °C 1014.1 hPa SSE 4.8 km/h 14.5 km/h 87 % 0 mm 0 W/m2
04:36 14.9 °C 12.8 °C 1014.1 hPa South 6.4 km/h 14.5 km/h 87 % 0 mm 0 W/m2
04:41 14.9 °C 12.8 °C 1014.1 hPa South 6.4 km/h 20.9 km/h 87 % 0 mm 0 W/m2
04:46 15 °C 12.8 °C 1014.1 hPa SSE 6.4 km/h 20.9 km/h 87 % 0 mm 0 W/m2
04:51 15.1 °C 12.9 °C 1014.1 hPa South 8 km/h 24.1 km/h 87 % 0 mm 0 W/m2
04:56 15.1 °C 12.9 °C 1014.1 hPa SW 9.7 km/h 24.1 km/h 87 % 0 mm 0 W/m2
05:01 15.1 °C 12.9 °C 1014.1 hPa SW 8 km/h 19.3 km/h 87 % 0 mm 0 W/m2
05:02 15.1 °C 12.9 °C 1014.1 hPa SW 9.7 km/h 19.3 km/h 87 % 0 mm 0 W/m2
05:07 15.1 °C 12.9 °C 1014.1 hPa SW 9.7 km/h 20.9 km/h 87 % 0 mm 0 W/m2
05:12 15.1 °C 12.9 °C 1014.1 hPa SW 11.3 km/h 24.1 km/h 87 % 0 mm 0 W/m2
05:17 15.1 °C 12.9 °C 1014.1 hPa SW 9.7 km/h 24.1 km/h 87 % 0 mm 0 W/m2
05:22 15.1 °C 12.9 °C 1013.8 hPa SW 11.3 km/h 29 km/h 87 % 0 mm 0 W/m2
05:28 15.2 °C 13.2 °C 1013.8 hPa SW 16.1 km/h 32.2 km/h 88 % 0 mm 0 W/m2
05:33 15.3 °C 13.3 °C 1013.8 hPa SW 17.7 km/h 33.8 km/h 88 % 0 mm 0 W/m2
05:38 15.4 °C 13.2 °C 1013.4 hPa SW 17.7 km/h 33.8 km/h 87 % 0 mm 0 W/m2
05:43 15.5 °C 13.3 °C 1013.4 hPa SW 17.7 km/h 33.8 km/h 87 % 0 mm 0 W/m2
05:48 15.5 °C 13.3 °C 1013.4 hPa SW 16.1 km/h 33.8 km/h 87 % 0 mm 0 W/m2
05:53 15.6 °C 13.4 °C 1013.4 hPa SW 19.3 km/h 38.6 km/h 87 % 0 mm 0 W/m2
05:58 15.6 °C 13.4 °C 1013.1 hPa SW 22.5 km/h 41.8 km/h 87 % 0 mm 0 W/m2
06:03 15.8 °C 13.7 °C 1013.1 hPa SW 25.7 km/h 49.9 km/h 87 % 0 mm 0 W/m2
06:08 15.9 °C 13.7 °C 1013.1 hPa SW 29 km/h 49.9 km/h 87 % 0 mm 0 W/m2
06:13 15.9 °C 13.6 °C 1013.1 hPa SW 29 km/h 54.7 km/h 86 % 0 mm 0 W/m2
06:18 16 °C 13.7 °C 1013.1 hPa SW 29 km/h 56.3 km/h 86 % 0 mm 0 W/m2
06:23 16 °C 13.7 °C 1013.1 hPa SW 29 km/h 56.3 km/h 86 % 0 mm 0 W/m2
06:28 16 °C 13.7 °C 1013.1 hPa SW 27.4 km/h 45.1 km/h 86 % 0 mm 0 W/m2
06:33 16 °C 13.7 °C 1013.1 hPa SW 29 km/h 51.5 km/h 86 % 0 mm 0 W/m2
06:38 16 °C 13.7 °C 1012.8 hPa SW 29 km/h 51.5 km/h 86 % 0 mm 0 W/m2
06:43 15.9 °C 13.6 °C 1012.8 hPa SW 27.4 km/h 46.7 km/h 86 % 0 mm 0 W/m2
06:48 15.9 °C 13.7 °C 1012.8 hPa SW 27.4 km/h 46.7 km/h 87 % 0 mm 0 W/m2
06:53 15.9 °C 13.7 °C 1012.8 hPa SW 27.4 km/h 43.5 km/h 87 % 0 mm 0 W/m2
06:58 15.9 °C 13.7 °C 1013.1 hPa SW 25.7 km/h 45.1 km/h 87 % 0 mm 0 W/m2
07:03 16 °C 13.8 °C 1013.1 hPa SW 27.4 km/h 45.1 km/h 87 % 0 mm 0 W/m2
07:06 16 °C 13.8 °C 1013.1 hPa SW 25.7 km/h 48.3 km/h 87 % 0 mm 0 W/m2
07:12 16.1 °C 13.9 °C 1013.1 hPa SW 25.7 km/h 49.9 km/h 87 % 0 mm 0 W/m2
07:16 16 °C 13.8 °C 1013.4 hPa SW 24.1 km/h 49.9 km/h 87 % 0 mm 0 W/m2
07:27 16.1 °C 13.9 °C 1013.4 hPa SW 22.5 km/h 38.6 km/h 87 % 0 mm 0 W/m2
07:32 16.1 °C 13.9 °C 1013.4 hPa SW 20.9 km/h 35.4 km/h 87 % 0 mm 0 W/m2
07:37 16.2 °C 14.1 °C 1013.4 hPa SSW 19.3 km/h 32.2 km/h 87 % 0 mm 5 W/m2
07:38 16.2 °C 14.1 °C 1013.4 hPa SSW 17.7 km/h 32.2 km/h 87 % 0 mm 5 W/m2
07:43 16.2 °C 14.1 °C 1013.4 hPa SW 16.1 km/h 32.2 km/h 87 % 0 mm 7 W/m2
07:48 16.2 °C 14.1 °C 1013.8 hPa SW 16.1 km/h 38.6 km/h 87 % 0 mm 9 W/m2
07:53 16.2 °C 14.1 °C 1013.8 hPa SW 16.1 km/h 38.6 km/h 87 % 0 mm 11 W/m2
07:58 16.2 °C 14.1 °C 1013.8 hPa SW 16.1 km/h 35.4 km/h 87 % 0 mm 16 W/m2
08:03 16.3 °C 14.1 °C 1013.8 hPa SW 16.1 km/h 35.4 km/h 87 % 0 mm 16 W/m2
08:08 16.3 °C 14.1 °C 1013.8 hPa SW 14.5 km/h 35.4 km/h 87 % 0 mm 14 W/m2
08:13 16.3 °C 14.1 °C 1013.8 hPa SSW 14.5 km/h 29 km/h 87 % 0 mm 21 W/m2
08:18 16.4 °C 14.2 °C 1013.8 hPa SSW 16.1 km/h 33.8 km/h 87 % 0 mm 26 W/m2
08:23 16.5 °C 14.2 °C 1013.8 hPa SSW 17.7 km/h 33.8 km/h 86 % 0 mm 23 W/m2
08:28 16.6 °C 14.2 °C 1013.8 hPa SW 19.3 km/h 33.8 km/h 86 % 0 mm 23 W/m2
08:33 16.7 °C 14.3 °C 1013.8 hPa SSW 22.5 km/h 43.5 km/h 86 % 0 mm 26 W/m2
08:38 16.8 °C 14.4 °C 1013.8 hPa SSW 20.9 km/h 43.5 km/h 86 % 0 mm 35 W/m2
08:43 16.8 °C 14.4 °C 1013.8 hPa SSW 19.3 km/h 40.2 km/h 86 % 0 mm 33 W/m2
08:48 16.8 °C 14.4 °C 1013.8 hPa SSW 19.3 km/h 38.6 km/h 86 % 0 mm 53 W/m2
08:53 16.8 °C 14.4 °C 1013.4 hPa SSW 17.7 km/h 40.2 km/h 86 % 0 mm 83 W/m2
08:58 16.9 °C 14.6 °C 1013.4 hPa SSW 19.3 km/h 40.2 km/h 86 % 0 mm 162 W/m2
09:01 17 °C 14.7 °C 1013.4 hPa SSW 17.7 km/h 37 km/h 86 % 0 mm 192 W/m2
09:06 17.2 °C 14.7 °C 1013.8 hPa SW 17.7 km/h 37 km/h 85 % 0 mm 251 W/m2
09:11 17.5 °C 14.8 °C 1013.8 hPa SW 19.3 km/h 35.4 km/h 84 % 0 mm 234 W/m2
09:16 17.7 °C 14.9 °C 1013.8 hPa SW 24.1 km/h 43.5 km/h 84 % 0 mm 299 W/m2
09:21 17.9 °C 14.9 °C 1013.8 hPa SW 27.4 km/h 43.5 km/h 83 % 0 mm 206 W/m2
09:26 18.1 °C 15 °C 1013.8 hPa SW 30.6 km/h 49.9 km/h 82 % 0 mm 338 W/m2
09:31 18.2 °C 15.1 °C 1014.1 hPa SW 27.4 km/h 49.9 km/h 82 % 0 mm 214 W/m2
09:36 18.4 °C 15.1 °C 1014.1 hPa SW 27.4 km/h 43.5 km/h 81 % 0 mm 401 W/m2
09:41 18.5 °C 15.2 °C 1014.1 hPa SW 27.4 km/h 45.1 km/h 81 % 0 mm 137 W/m2
09:46 18.4 °C 15.1 °C 1014.1 hPa SW 25.7 km/h 45.1 km/h 81 % 0 mm 171 W/m2
09:51 18.4 °C 15.1 °C 1014.1 hPa SW 27.4 km/h 45.1 km/h 81 % 0 mm 165 W/m2
09:56 18.5 °C 15.2 °C 1014.1 hPa SW 27.4 km/h 45.1 km/h 81 % 0 mm 308 W/m2
10:01 18.6 °C 15.1 °C 1014.1 hPa SW 25.7 km/h 49.9 km/h 80 % 0 mm 139 W/m2
10:06 18.6 °C 15.1 °C 1014.1 hPa SW 27.4 km/h 49.9 km/h 80 % 0 mm 128 W/m2
10:12 18.5 °C 15 °C 1014.1 hPa SW 25.7 km/h 43.5 km/h 80 % 0 mm 134 W/m2
10:17 18.5 °C 15 °C 1014.1 hPa SW 24.1 km/h 40.2 km/h 80 % 0 mm 127 W/m2
10:22 18.5 °C 15 °C 1013.8 hPa SW 24.1 km/h 43.5 km/h 80 % 0 mm 176 W/m2
10:27 18.6 °C 15.1 °C 1013.8 hPa SW 29 km/h 51.5 km/h 80 % 0 mm 134 W/m2
10:32 18.6 °C 15.1 °C 1014.1 hPa SW 29 km/h 51.5 km/h 80 % 0 mm 132 W/m2
10:37 18.6 °C 15.1 °C 1014.1 hPa SW 27.4 km/h 48.3 km/h 80 % 0 mm 135 W/m2
10:42 18.7 °C 15 °C 1014.1 hPa SW 30.6 km/h 48.3 km/h 79 % 0 mm 162 W/m2
10:47 18.8 °C 15.1 °C 1014.4 hPa WSW 30.6 km/h 51.5 km/h 79 % 0 mm 167 W/m2
10:52 18.8 °C 15.1 °C 1014.4 hPa WSW 25.7 km/h 51.5 km/h 79 % 0 mm 200 W/m2
10:57 18.9 °C 15.2 °C 1014.4 hPa WSW 25.7 km/h 49.9 km/h 79 % 0 mm 218 W/m2
11:02 19.1 °C 15.2 °C 1014.4 hPa WSW 29 km/h 51.5 km/h 78 % 0 mm 193 W/m2
11:07 19.1 °C 15.2 °C 1014.4 hPa WSW 30.6 km/h 51.5 km/h 78 % 0 mm 172 W/m2
11:12 19.1 °C 15.2 °C 1014.4 hPa WSW 29 km/h 48.3 km/h 78 % 0 mm 148 W/m2
11:17 19.1 °C 15.4 °C 1014.4 hPa WSW 27.4 km/h 45.1 km/h 79 % 0 mm 174 W/m2
11:22 19.2 °C 15.4 °C 1014.4 hPa SW 27.4 km/h 49.9 km/h 79 % 0 mm 176 W/m2
11:25 19.2 °C 15.4 °C 1014.8 hPa SW 25.7 km/h 49.9 km/h 79 % 0 mm 165 W/m2
11:30 19.2 °C 15.4 °C 1014.4 hPa SW 25.7 km/h 48.3 km/h 79 % 0 mm 165 W/m2
11:35 19.2 °C 15.4 °C 1014.4 hPa SW 27.4 km/h 45.1 km/h 79 % 0 mm 313 W/m2
11:40 19.3 °C 15.6 °C 1014.4 hPa SW 24.1 km/h 43.5 km/h 79 % 0 mm 285 W/m2
11:45 19.5 °C 15.6 °C 1014.4 hPa SW 24.1 km/h 45.1 km/h 78 % 0 mm 348 W/m2
11:50 19.7 °C 15.8 °C 1014.4 hPa SW 25.7 km/h 45.1 km/h 78 % 0 mm 220 W/m2
11:55 19.7 °C 15.8 °C 1014.4 hPa SW 20.9 km/h 38.6 km/h 78 % 0 mm 185 W/m2
12:00 19.7 °C 15.8 °C 1014.8 hPa SW 20.9 km/h 38.6 km/h 78 % 0 mm 176 W/m2
12:05 19.7 °C 15.8 °C 1014.8 hPa SW 20.9 km/h 38.6 km/h 78 % 0 mm 163 W/m2
12:10 19.6 °C 15.7 °C 1014.8 hPa SW 20.9 km/h 37 km/h 78 % 0 mm 125 W/m2
12:15 19.5 °C 15.8 °C 1014.8 hPa SW 22.5 km/h 37 km/h 79 % 0 mm 192 W/m2
12:20 19.5 °C 15.8 °C 1014.8 hPa SW 24.1 km/h 38.6 km/h 79 % 0 mm 174 W/m2
12:25 19.5 °C 15.8 °C 1014.8 hPa SW 25.7 km/h 38.6 km/h 79 % 0 mm 139 W/m2
12:30 19.4 °C 15.7 °C 1014.4 hPa SW 25.7 km/h 41.8 km/h 79 % 0 mm 118 W/m2
12:35 19.4 °C 15.8 °C 1014.4 hPa SW 25.7 km/h 45.1 km/h 80 % 0 mm 102 W/m2
12:40 19.3 °C 15.8 °C 1014.4 hPa SW 27.4 km/h 48.3 km/h 80 % 0 mm 98 W/m2
12:45 19.3 °C 15.8 °C 1014.4 hPa SW 30.6 km/h 54.7 km/h 80 % 0 mm 93 W/m2
12:50 19.2 °C 15.8 °C 1014.4 hPa SW 29 km/h 54.7 km/h 81 % 0 mm 93 W/m2
12:55 19.1 °C 15.8 °C 1014.8 hPa SW 27.4 km/h 46.7 km/h 81 % 0 mm 98 W/m2
13:00 18.9 °C 15.8 °C 1014.8 hPa SW 24.1 km/h 37 km/h 82 % 0 mm 123 W/m2
13:05 18.9 °C 15.9 °C 1014.8 hPa SW 20.9 km/h 38.6 km/h 83 % 0 mm 142 W/m2
13:10 19.1 °C 15.9 °C 1014.8 hPa WSW 20.9 km/h 38.6 km/h 82 % 0 mm 174 W/m2
13:15 19.3 °C 15.9 °C 1014.8 hPa WSW 22.5 km/h 40.2 km/h 81 % 0 mm 176 W/m2
13:20 19.5 °C 16.2 °C 1014.8 hPa SW 20.9 km/h 40.2 km/h 81 % 0 mm 251 W/m2
13:25 19.7 °C 16.3 °C 1014.4 hPa WSW 22.5 km/h 45.1 km/h 81 % 0 mm 360 W/m2
13:30 19.9 °C 16.3 °C 1014.4 hPa SW 25.7 km/h 45.1 km/h 80 % 0 mm 227 W/m2
13:35 20 °C 16.4 °C 1014.8 hPa SW 25.7 km/h 41.8 km/h 80 % 0 mm 279 W/m2
13:40 20.1 °C 16.3 °C 1014.8 hPa SW 27.4 km/h 45.1 km/h 79 % 0 mm 619 W/m2
13:45 20.5 °C 16.7 °C 1014.8 hPa SW 25.7 km/h 45.1 km/h 79 % 0 mm 612 W/m2
13:51 20.6 °C 16.4 °C 1014.8 hPa SW 25.7 km/h 43.5 km/h 77 % 0 mm 650 W/m2
13:56 20.7 °C 16.5 °C 1014.8 hPa SW 27.4 km/h 48.3 km/h 77 % 0 mm 628 W/m2
14:01 20.7 °C 16.5 °C 1014.8 hPa SW 24.1 km/h 48.3 km/h 77 % 0 mm 299 W/m2
14:06 20.6 °C 16.4 °C 1014.8 hPa SW 24.1 km/h 41.8 km/h 77 % 0 mm 367 W/m2
14:11 20.6 °C 16.4 °C 1014.8 hPa SW 24.1 km/h 41.8 km/h 77 % 0 mm 686 W/m2
14:16 20.8 °C 16.6 °C 1014.8 hPa SW 22.5 km/h 41.8 km/h 77 % 0 mm 555 W/m2
14:21 20.9 °C 16.5 °C 1014.8 hPa SW 22.5 km/h 41.8 km/h 76 % 0 mm 635 W/m2
14:26 21 °C 16.4 °C 1014.8 hPa SW 24.1 km/h 41.8 km/h 75 % 0 mm 482 W/m2
14:31 20.9 °C 16.5 °C 1014.8 hPa SW 22.5 km/h 41.8 km/h 76 % 0 mm 276 W/m2
14:36 20.8 °C 16.4 °C 1014.8 hPa SW 22.5 km/h 40.2 km/h 76 % 0 mm 287 W/m2
14:41 20.8 °C 16.6 °C 1015.1 hPa SW 20.9 km/h 38.6 km/h 77 % 0 mm 225 W/m2
14:46 20.6 °C 16.4 °C 1015.1 hPa SW 20.9 km/h 38.6 km/h 77 % 0 mm 192 W/m2
14:51 20.5 °C 16.3 °C 1015.1 hPa SW 19.3 km/h 32.2 km/h 77 % 0 mm 102 W/m2
14:56 20.4 °C 16.4 °C 1015.1 hPa SW 17.7 km/h 35.4 km/h 78 % 0 mm 127 W/m2
15:01 20.3 °C 16.3 °C 1015.1 hPa SW 17.7 km/h 35.4 km/h 78 % 0 mm 100 W/m2
15:06 20.2 °C 16.2 °C 1015.1 hPa SW 14.5 km/h 29 km/h 78 % 0 mm 88 W/m2
15:11 20.1 °C 16.3 °C 1014.8 hPa SW 17.7 km/h 29 km/h 79 % 0 mm 77 W/m2
15:16 19.9 °C 16.2 °C 1014.8 hPa SSW 19.3 km/h 33.8 km/h 79 % 0 mm 58 W/m2
15:21 19.8 °C 16.2 °C 1014.8 hPa SSW 17.7 km/h 35.4 km/h 80 % 0 mm 81 W/m2
15:26 19.8 °C 16.2 °C 1014.8 hPa SSW 16.1 km/h 35.4 km/h 80 % 0 mm 77 W/m2
15:31 19.8 °C 16.2 °C 1015.1 hPa SSW 14.5 km/h 25.7 km/h 80 % 0 mm 67 W/m2
15:36 19.8 °C 16.2 °C 1015.1 hPa SSW 16.1 km/h 32.2 km/h 80 % 0 mm 74 W/m2
15:41 19.8 °C 16.2 °C 1015.1 hPa SSW 17.7 km/h 33.8 km/h 80 % 0 mm 91 W/m2
15:46 19.9 °C 16.3 °C 1015.1 hPa SSW 17.7 km/h 33.8 km/h 80 % 0 mm 72 W/m2
15:51 20 °C 16.4 °C 1014.8 hPa SW 16.1 km/h 29 km/h 80 % 0 mm 109 W/m2
15:56 20.1 °C 16.6 °C 1014.8 hPa SSW 12.9 km/h 24.1 km/h 80 % 0 mm 109 W/m2
16:01 20.2 °C 16.6 °C 1015.1 hPa SW 11.3 km/h 24.1 km/h 80 % 0 mm 216 W/m2
16:06 20.4 °C 16.8 °C 1014.8 hPa SW 12.9 km/h 24.1 km/h 80 % 0 mm 392 W/m2
16:11 20.7 °C 16.7 °C 1014.8 hPa SSW 16.1 km/h 30.6 km/h 78 % 0 mm 332 W/m2
16:16 20.8 °C 16.8 °C 1014.8 hPa SW 19.3 km/h 51.5 km/h 78 % 0 mm 394 W/m2
16:21 20.9 °C 16.9 °C 1014.8 hPa SW 17.7 km/h 51.5 km/h 78 % 0 mm 285 W/m2
16:26 20.8 °C 16.6 °C 1014.8 hPa SW 14.5 km/h 32.2 km/h 77 % 0 mm 294 W/m2
16:31 20.7 °C 16.7 °C 1014.8 hPa SSW 14.5 km/h 33.8 km/h 78 % 0 mm 174 W/m2
16:36 20.5 °C 16.6 °C 1014.8 hPa SSW 14.5 km/h 33.8 km/h 78 % 0 mm 67 W/m2
16:41 20.4 °C 16.6 °C 1014.8 hPa SSW 12.9 km/h 25.7 km/h 79 % 0 mm 53 W/m2
16:46 20.2 °C 16.6 °C 1014.8 hPa SSW 12.9 km/h 29 km/h 80 % 0 mm 47 W/m2
16:51 19.9 °C 16.3 °C 1014.8 hPa SSW 14.5 km/h 29 km/h 80 % 0 mm 42 W/m2
16:56 19.8 °C 16.4 °C 1015.1 hPa SSW 14.5 km/h 30.6 km/h 81 % 0 mm 51 W/m2
17:01 19.8 °C 16.4 °C 1015.1 hPa SSW 12.9 km/h 30.6 km/h 81 % 0 mm 62 W/m2
17:06 19.8 °C 16.4 °C 1015.1 hPa SSW 12.9 km/h 24.1 km/h 81 % 0 mm 97 W/m2
17:11 19.7 °C 16.6 °C 1015.1 hPa SW 14.5 km/h 25.7 km/h 82 % 0 mm 83 W/m2
17:16 19.7 °C 16.3 °C 1015.1 hPa SW 12.9 km/h 25.7 km/h 81 % 0 mm 81 W/m2
17:21 19.6 °C 16.4 °C 1015.1 hPa SW 11.3 km/h 20.9 km/h 82 % 0 mm 44 W/m2
17:26 19.5 °C 16.2 °C 1015.1 hPa SSW 9.7 km/h 22.5 km/h 81 % 0 mm 30 W/m2
17:31 19.4 °C 16.2 °C 1015.1 hPa SSW 12.9 km/h 22.5 km/h 82 % 0 mm 26 W/m2
17:36 19.2 °C 16.1 °C 1015.1 hPa SSW 14.5 km/h 40.2 km/h 82 % 0 mm 18 W/m2
17:41 19.2 °C 16.2 °C 1015.1 hPa SSW 12.9 km/h 40.2 km/h 83 % 0 mm 14 W/m2
17:46 19.1 °C 16.2 °C 1015.1 hPa SW 12.9 km/h 25.7 km/h 83 % 0 mm 14 W/m2
17:51 19 °C 16.1 °C 1015.1 hPa SW 14.5 km/h 29 km/h 83 % 0 mm 14 W/m2
17:56 18.9 °C 15.9 °C 1015.1 hPa SW 16.1 km/h 35.4 km/h 83 % 0 mm 14 W/m2
18:01 18.9 °C 15.9 °C 1015.5 hPa SW 19.3 km/h 35.4 km/h 83 % 0 mm 9 W/m2
18:06 18.9 °C 15.9 °C 1015.5 hPa SW 17.7 km/h 33.8 km/h 83 % 0 mm 7 W/m2
18:11 18.9 °C 15.9 °C 1015.5 hPa SW 16.1 km/h 33.8 km/h 83 % 0 mm 0 W/m2
18:12 18.9 °C 15.9 °C 1015.5 hPa SW 16.1 km/h 33.8 km/h 83 % 0 mm 0 W/m2
18:17 18.9 °C 15.9 °C 1015.5 hPa SW 17.7 km/h 33.8 km/h 83 % 0 mm 0 W/m2
18:22 18.8 °C 15.8 °C 1015.5 hPa SW 14.5 km/h 32.2 km/h 83 % 0 mm 0 W/m2
18:27 18.8 °C 15.8 °C 1015.5 hPa SSW 12.9 km/h 24.1 km/h 83 % 0 mm 0 W/m2
18:32 18.8 °C 16.1 °C 1015.5 hPa SSW 16.1 km/h 25.7 km/h 84 % 0 mm 0 W/m2
18:37 18.7 °C 15.9 °C 1015.5 hPa SSW 14.5 km/h 25.7 km/h 84 % 0 mm 0 W/m2
18:42 18.7 °C 15.9 °C 1015.5 hPa SSW 12.9 km/h 29 km/h 84 % 0 mm 0 W/m2
18:47 18.6 °C 15.8 °C 1015.5 hPa SSW 12.9 km/h 29 km/h 84 % 0 mm 0 W/m2
18:52 18.6 °C 15.8 °C 1015.5 hPa SSW 9.7 km/h 20.9 km/h 84 % 0 mm 0 W/m2
18:57 18.6 °C 15.8 °C 1015.8 hPa SSW 11.3 km/h 25.7 km/h 84 % 0 mm 0 W/m2
19:02 18.6 °C 15.8 °C 1015.5 hPa SW 14.5 km/h 25.7 km/h 84 % 0 mm 0 W/m2
19:07 18.6 °C 15.8 °C 1015.5 hPa SW 16.1 km/h 30.6 km/h 84 % 0 mm 0 W/m2
19:12 18.6 °C 15.8 °C 1015.8 hPa SW 14.5 km/h 35.4 km/h 84 % 0 mm 0 W/m2
19:17 18.6 °C 15.8 °C 1015.8 hPa SW 12.9 km/h 35.4 km/h 84 % 0 mm 0 W/m2
19:22 18.6 °C 15.8 °C 1015.8 hPa SW 11.3 km/h 24.1 km/h 84 % 0 mm 0 W/m2
19:27 18.6 °C 15.8 °C 1015.8 hPa SW 11.3 km/h 25.7 km/h 84 % 0 mm 0 W/m2
19:32 18.6 °C 16 °C 1015.5 hPa SW 12.9 km/h 29 km/h 85 % 0 mm 0 W/m2
19:37 18.5 °C 15.9 °C 1015.8 hPa SW 14.5 km/h 29 km/h 85 % 0 mm 0 W/m2
19:42 18.4 °C 15.8 °C 1015.8 hPa SW 14.5 km/h 30.6 km/h 85 % 0 mm 0 W/m2
19:47 18.3 °C 15.9 °C 1015.8 hPa SW 12.9 km/h 30.6 km/h 86 % 0 mm 0 W/m2
19:52 18.3 °C 15.9 °C 1015.8 hPa SW 12.9 km/h 29 km/h 86 % 0 mm 0 W/m2
19:57 18.3 °C 15.9 °C 1015.8 hPa SW 16.1 km/h 29 km/h 86 % 0 mm 0 W/m2
20:02 18.2 °C 15.8 °C 1015.8 hPa WSW 14.5 km/h 25.7 km/h 86 % 0 mm 0 W/m2
20:08 18.2 °C 15.8 °C 1015.8 hPa WSW 12.9 km/h 25.7 km/h 86 % 0 mm 0 W/m2
20:13 18.1 °C 15.7 °C 1015.8 hPa SW 11.3 km/h 20.9 km/h 86 % 0 mm 0 W/m2
20:18 18.1 °C 15.7 °C 1015.8 hPa SW 12.9 km/h 30.6 km/h 86 % 0 mm 0 W/m2
20:23 18.2 °C 15.8 °C 1015.8 hPa SW 16.1 km/h 38.6 km/h 86 % 0 mm 0 W/m2
20:28 18.3 °C 15.9 °C 1015.8 hPa SW 20.9 km/h 38.6 km/h 86 % 0 mm 0 W/m2
20:33 18.3 °C 15.9 °C 1015.8 hPa SW 19.3 km/h 38.6 km/h 86 % 0 mm 0 W/m2
20:38 18.3 °C 15.9 °C 1015.8 hPa SW 17.7 km/h 32.2 km/h 86 % 0 mm 0 W/m2
20:43 18.2 °C 16 °C 1015.8 hPa SW 19.3 km/h 35.4 km/h 87 % 0 mm 0 W/m2
20:48 18.1 °C 15.9 °C 1016.1 hPa SW 17.7 km/h 35.4 km/h 87 % 0 mm 0 W/m2
20:53 18 °C 16 °C 1015.8 hPa WSW 16.1 km/h 32.2 km/h 88 % 0 mm 0 W/m2
20:58 18 °C 15.8 °C 1016.1 hPa WSW 16.1 km/h 33.8 km/h 87 % 0 mm 0 W/m2
21:03 18 °C 15.8 °C 1015.8 hPa SW 19.3 km/h 35.4 km/h 87 % 0 mm 0 W/m2
21:08 18.1 °C 15.9 °C 1016.1 hPa SW 19.3 km/h 35.4 km/h 87 % 0 mm 0 W/m2
21:13 18.2 °C 15.8 °C 1015.8 hPa SW 17.7 km/h 32.2 km/h 86 % 0 mm 0 W/m2
21:18 18.2 °C 15.8 °C 1016.1 hPa SW 20.9 km/h 37 km/h 86 % 0 mm 0 W/m2
21:23 18.3 °C 15.9 °C 1015.8 hPa SW 22.5 km/h 38.6 km/h 86 % 0 mm 0 W/m2
21:28 18.3 °C 15.9 °C 1015.8 hPa WSW 22.5 km/h 40.2 km/h 86 % 0 mm 0 W/m2
21:33 18.3 °C 15.9 °C 1015.8 hPa WSW 24.1 km/h 40.2 km/h 86 % 0 mm 0 W/m2
21:38 18.3 °C 15.9 °C 1015.8 hPa WSW 24.1 km/h 40.2 km/h 86 % 0 mm 0 W/m2
21:43 18.3 °C 15.9 °C 1015.8 hPa WSW 19.3 km/h 35.4 km/h 86 % 0 mm 0 W/m2
21:48 18.3 °C 15.9 °C 1015.8 hPa SW 19.3 km/h 46.7 km/h 86 % 0 mm 0 W/m2
21:53 18.3 °C 15.9 °C 1015.5 hPa SW 19.3 km/h 46.7 km/h 86 % 0 mm 0 W/m2
21:58 18.3 °C 15.7 °C 1015.8 hPa WSW 19.3 km/h 37 km/h 85 % 0 mm 0 W/m2
22:03 18.3 °C 15.7 °C 1015.5 hPa WSW 20.9 km/h 40.2 km/h 85 % 0 mm 0 W/m2
22:08 18.4 °C 15.8 °C 1015.8 hPa WSW 22.5 km/h 41.8 km/h 85 % 0 mm 0 W/m2
22:13 18.4 °C 15.8 °C 1015.8 hPa WSW 24.1 km/h 46.7 km/h 85 % 0 mm 0 W/m2
22:18 18.4 °C 15.8 °C 1015.8 hPa WSW 22.5 km/h 46.7 km/h 85 % 0 mm 0 W/m2
22:23 18.4 °C 15.8 °C 1015.5 hPa WSW 22.5 km/h 41.8 km/h 85 % 0 mm 0 W/m2
22:28 18.4 °C 15.8 °C 1015.8 hPa WSW 22.5 km/h 43.5 km/h 85 % 0 mm 0 W/m2
22:33 18.3 °C 15.7 °C 1015.8 hPa WSW 17.7 km/h 43.5 km/h 85 % 0 mm 0 W/m2
22:38 18.3 °C 15.7 °C 1015.8 hPa WSW 17.7 km/h 35.4 km/h 85 % 0 mm 0 W/m2
22:43 18.3 °C 15.7 °C 1016.1 hPa WSW 17.7 km/h 35.4 km/h 85 % 0 mm 0 W/m2
22:48 18.3 °C 15.9 °C 1015.8 hPa SW 17.7 km/h 37 km/h 86 % 0 mm 0 W/m2
22:53 18.2 °C 15.8 °C 1015.8 hPa SW 17.7 km/h 38.6 km/h 86 % 0 mm 0 W/m2
22:58 18.2 °C 15.8 °C 1015.8 hPa SW 17.7 km/h 38.6 km/h 86 % 0 mm 0 W/m2
23:03 18.1 °C 15.9 °C 1015.8 hPa SW 17.7 km/h 33.8 km/h 87 % 0 mm 0 W/m2
23:08 18.1 °C 15.9 °C 1015.8 hPa SW 17.7 km/h 33.8 km/h 87 % 0 mm 0 W/m2
23:10 18.1 °C 15.9 °C 1015.8 hPa SW 17.7 km/h 30.6 km/h 87 % 0 mm 0 W/m2
23:15 18.1 °C 15.9 °C 1015.8 hPa SW 16.1 km/h 33.8 km/h 87 % 0 mm 0 W/m2
23:20 18 °C 15.8 °C 1016.1 hPa SW 14.5 km/h 33.8 km/h 87 % 0 mm 0 W/m2
23:25 18 °C 15.8 °C 1016.1 hPa SW 14.5 km/h 37 km/h 87 % 0 mm 0 W/m2
23:30 17.9 °C 15.7 °C 1016.1 hPa SW 14.5 km/h 37 km/h 87 % 0 mm 0 W/m2
23:35 17.9 °C 15.7 °C 1016.1 hPa SW 16.1 km/h 30.6 km/h 87 % 0 mm 0 W/m2
23:40 17.9 °C 15.7 °C 1016.1 hPa WSW 16.1 km/h 30.6 km/h 87 % 0 mm 0 W/m2
23:45 17.9 °C 15.7 °C 1016.1 hPa SW 12.9 km/h 24.1 km/h 87 % 0 mm 0 W/m2
23:50 17.9 °C 15.7 °C 1016.1 hPa WSW 11.3 km/h 25.7 km/h 87 % 0 mm 0 W/m2
23:55 18 °C 15.6 °C 1016.5 hPa WSW 12.9 km/h 32.2 km/h 86 % 0 mm 0 W/m2
Delerius-Weather
Compliments of Weather Underground - 2.25 mb

Data updates at regular intervals.